createdAt,value
2023-01-06T00:02:13.462Z,99112.94
2023-01-06T00:04:41.599Z,99113.59
2023-01-06T00:07:12.240Z,99108.81
2023-01-06T00:09:40.672Z,99121.06
2023-01-06T00:12:08.984Z,99115.25
2023-01-06T00:14:38.356Z,99115.66
2023-01-06T00:17:06.417Z,99113.16
2023-01-06T00:19:34.481Z,99109.50
2023-01-06T00:22:02.581Z,99107.69
2023-01-06T00:24:30.591Z,99102.34
2023-01-06T00:26:58.663Z,99096.38
2023-01-06T00:29:26.997Z,99089.91
2023-01-06T00:31:56.407Z,99089.81
2023-01-06T00:34:24.451Z,99090.16
2023-01-06T00:36:52.618Z,99076.50
2023-01-06T00:39:20.675Z,99076.09
2023-01-06T00:42:06.993Z,99071.09
2023-01-06T00:44:37.291Z,99066.84
2023-01-06T00:47:07.736Z,99069.84
2023-01-06T00:49:35.812Z,99072.78
2023-01-06T00:52:04.373Z,99073.66
2023-01-06T00:54:32.501Z,99075.69
2023-01-06T00:57:00.547Z,99082.59
2023-01-06T00:59:28.774Z,99081.97
2023-01-06T01:01:58.054Z,99076.38
2023-01-06T01:04:27.965Z,99074.06
2023-01-06T01:06:56.174Z,99078.69
2023-01-06T01:09:24.984Z,99086.53
2023-01-06T01:12:12.002Z,99078.84
2023-01-06T01:14:41.527Z,99080.66
2023-01-06T01:17:10.288Z,99066.56
2023-01-06T01:19:40.132Z,99056.63
2023-01-06T01:22:10.560Z,99081.44
2023-01-06T01:24:40.981Z,99067.28
2023-01-06T01:27:09.469Z,99078.50
2023-01-06T01:29:37.567Z,99075.91
2023-01-06T01:32:05.797Z,99060.72
2023-01-06T01:34:33.859Z,99062.66
2023-01-06T01:37:03.273Z,99056.34
2023-01-06T01:39:31.521Z,99056.81
2023-01-06T01:42:00.000Z,99062.22
2023-01-06T01:44:48.443Z,99053.66
2023-01-06T01:47:20.033Z,99051.59
2023-01-06T01:49:49.528Z,99048.44
2023-01-06T01:52:19.652Z,99045.84
2023-01-06T01:54:48.777Z,99043.03
2023-01-06T01:57:18.130Z,99028.47
2023-01-06T01:59:48.634Z,99049.66
2023-01-06T02:02:19.696Z,99042.69
2023-01-06T02:04:50.135Z,99047.69
2023-01-06T02:07:22.650Z,99044.97
2023-01-06T02:09:54.255Z,99034.94
2023-01-06T02:12:22.280Z,99039.47
2023-01-06T02:14:50.242Z,99042.81
2023-01-06T02:17:42.860Z,99031.63
2023-01-06T02:20:25.597Z,99031.38
2023-01-06T02:23:12.053Z,99032.31
2023-01-06T02:25:57.623Z,99029.22
2023-01-06T02:28:46.529Z,99022.94
2023-01-06T02:31:40.427Z,99025.88
2023-01-06T02:34:13.243Z,99029.78
2023-01-06T02:36:45.959Z,99032.53
2023-01-06T02:39:21.758Z,99036.91
2023-01-06T02:41:54.566Z,99026.94
2023-01-06T02:44:28.825Z,99031.81
2023-01-06T02:47:09.518Z,99024.00
2023-01-06T02:49:42.765Z,99023.97
2023-01-06T02:52:13.919Z,99029.59
2023-01-06T02:54:52.198Z,99021.28
2023-01-06T02:57:27.060Z,99023.72
2023-01-06T03:00:01.163Z,99015.69
2023-01-06T03:02:32.559Z,99015.25
2023-01-06T03:05:02.540Z,99018.78
2023-01-06T03:07:32.744Z,99014.63
2023-01-06T03:10:02.844Z,99012.19
2023-01-06T03:12:34.574Z,99010.13
2023-01-06T03:15:03.913Z,99010.97
2023-01-06T03:17:33.697Z,99007.72
2023-01-06T03:20:04.717Z,99014.84
2023-01-06T03:22:34.920Z,99013.13
2023-01-06T03:25:03.154Z,99009.25
2023-01-06T03:27:31.520Z,99015.53
2023-01-06T03:29:59.890Z,99011.91
2023-01-06T03:32:31.690Z,99036.50
2023-01-06T03:35:13.013Z,99038.63
2023-01-06T03:37:45.840Z,99051.91
2023-01-06T03:40:18.481Z,99068.66
2023-01-06T03:43:06.780Z,99086.63
2023-01-06T03:45:56.715Z,99070.28
2023-01-06T03:48:37.562Z,99098.47
2023-01-06T03:51:11.857Z,99105.06
2023-01-06T03:53:43.379Z,99109.34
2023-01-06T03:56:16.756Z,99113.94
2023-01-06T03:58:47.034Z,99125.31
2023-01-06T04:01:16.320Z,99125.56
2023-01-06T04:03:45.619Z,99123.28
2023-01-06T04:06:15.425Z,99112.00
2023-01-06T04:08:44.944Z,99114.19
2023-01-06T04:11:34.376Z,99116.81
2023-01-06T04:14:03.768Z,99106.91
2023-01-06T04:16:31.843Z,99109.00
2023-01-06T04:19:00.830Z,99108.38
2023-01-06T04:21:30.269Z,99114.63
2023-01-06T04:23:58.736Z,99117.31
2023-01-06T04:26:29.521Z,99104.47
2023-01-06T04:28:57.590Z,99104.78
2023-01-06T04:31:26.033Z,99111.69
2023-01-06T04:33:55.582Z,99099.81
2023-01-06T04:36:23.762Z,99094.03
2023-01-06T04:38:56.543Z,99080.94
2023-01-06T04:41:26.939Z,99093.81
2023-01-06T04:43:57.839Z,99095.28
2023-01-06T04:46:26.092Z,99089.66
2023-01-06T04:48:54.083Z,99083.44
2023-01-06T04:51:22.064Z,99084.81
2023-01-06T04:53:50.134Z,99079.63
2023-01-06T04:56:19.447Z,99075.28
2023-01-06T04:58:47.481Z,99067.38
2023-01-06T05:01:15.816Z,99065.59
2023-01-06T05:03:46.028Z,99073.25
2023-01-06T05:06:14.327Z,99069.94
2023-01-06T05:08:43.239Z,99070.31
2023-01-06T05:11:12.847Z,99069.31
2023-01-06T05:13:42.312Z,99079.31
2023-01-06T05:16:11.314Z,99073.25
2023-01-06T05:18:39.320Z,99074.50
2023-01-06T05:21:07.528Z,99067.84
2023-01-06T05:23:37.051Z,99071.78
2023-01-06T05:26:05.212Z,99066.53
2023-01-06T05:28:33.862Z,99056.56
2023-01-06T05:31:03.668Z,99058.94
2023-01-06T05:33:32.067Z,99049.19
2023-01-06T05:36:00.435Z,99054.19
2023-01-06T05:38:28.446Z,99051.44
2023-01-06T05:40:57.320Z,99047.53
2023-01-06T05:43:27.938Z,99052.50
2023-01-06T05:45:56.452Z,99051.63
2023-01-06T05:48:26.766Z,99058.13
2023-01-06T05:51:01.156Z,99050.53
2023-01-06T05:53:31.262Z,99049.47
2023-01-06T05:56:00.344Z,99054.94
2023-01-06T05:58:28.583Z,99025.34
2023-01-06T06:00:58.735Z,99058.00
2023-01-06T06:03:28.138Z,99059.44
2023-01-06T06:05:56.200Z,99057.81
2023-01-06T06:08:24.163Z,99054.19
2023-01-06T06:10:52.203Z,99068.06
2023-01-06T06:13:24.394Z,99064.50
2023-01-06T06:15:52.576Z,99072.63
2023-01-06T06:18:20.574Z,99055.78
2023-01-06T06:20:50.035Z,99077.91
2023-01-06T06:23:19.287Z,99077.56
2023-01-06T06:25:50.607Z,99079.00
2023-01-06T06:28:18.649Z,99077.81
2023-01-06T06:30:46.696Z,99086.53
2023-01-06T06:33:14.748Z,99094.03
2023-01-06T06:35:42.783Z,99091.06
2023-01-06T06:38:12.188Z,99096.06
2023-01-06T06:40:40.190Z,99101.34
2023-01-06T06:43:08.213Z,99097.97
2023-01-06T06:45:36.308Z,99101.94
2023-01-06T06:48:04.513Z,99100.31
2023-01-06T06:50:34.830Z,99093.22
2023-01-06T06:53:02.883Z,99098.00
2023-01-06T06:55:32.273Z,99099.69
2023-01-06T06:58:00.407Z,99100.72
2023-01-06T07:00:28.409Z,99099.47
2023-01-06T07:02:56.491Z,99103.63
2023-01-06T07:05:25.640Z,99099.22
2023-01-06T07:07:53.744Z,99094.69
2023-01-06T07:10:21.855Z,99110.91
2023-01-06T07:12:51.251Z,99107.34
2023-01-06T07:15:19.355Z,99117.31
2023-01-06T07:17:47.385Z,99139.94
2023-01-06T07:20:15.619Z,99137.22
2023-01-06T07:22:43.807Z,99145.13
2023-01-06T07:25:12.029Z,99144.31
2023-01-06T07:27:40.092Z,99163.16
2023-01-06T07:30:10.627Z,99155.09
2023-01-06T07:32:38.720Z,99156.72
2023-01-06T07:35:07.221Z,99157.94
2023-01-06T07:37:35.316Z,99164.56
2023-01-06T07:40:03.363Z,99152.34
2023-01-06T07:42:31.416Z,99158.78
2023-01-06T07:44:59.426Z,99135.13
2023-01-06T07:47:28.802Z,99137.84
2023-01-06T07:49:56.873Z,99118.94
2023-01-06T07:52:24.962Z,99119.34
2023-01-06T07:54:53.027Z,99111.47
2023-01-06T07:57:21.107Z,99092.16
2023-01-06T07:59:49.209Z,99097.16
2023-01-06T08:02:17.344Z,99091.56
2023-01-06T08:04:46.771Z,99099.25
2023-01-06T08:07:15.444Z,99100.72
2023-01-06T08:09:43.610Z,99096.97
2023-01-06T08:12:12.087Z,99105.06
2023-01-06T08:14:40.281Z,99105.69
2023-01-06T08:17:08.400Z,99095.94
2023-01-06T08:19:36.784Z,99103.41
2023-01-06T08:22:06.933Z,99080.78
2023-01-06T08:24:35.687Z,99093.22
2023-01-06T08:27:03.727Z,99092.59
2023-01-06T08:29:31.742Z,99095.94
2023-01-06T08:32:09.772Z,99090.75
2023-01-06T08:34:39.018Z,99096.56
2023-01-06T08:37:08.490Z,99103.81
2023-01-06T08:39:36.630Z,99093.84
2023-01-06T08:42:05.491Z,99097.59
2023-01-06T08:44:33.580Z,99095.47
2023-01-06T08:47:01.627Z,99091.31
2023-01-06T08:49:29.630Z,99099.44
2023-01-06T08:51:57.966Z,99082.31
2023-01-06T08:54:28.280Z,99093.00
2023-01-06T08:56:56.923Z,99083.97
2023-01-06T08:59:27.282Z,99072.56
2023-01-06T09:01:55.362Z,99070.75
2023-01-06T09:04:24.054Z,99062.16
2023-01-06T09:06:52.088Z,99063.50
2023-01-06T09:09:20.129Z,99056.47
2023-01-06T09:11:49.659Z,99068.81
2023-01-06T09:14:18.121Z,99076.25
2023-01-06T09:16:47.842Z,99074.31
2023-01-06T09:19:16.948Z,99077.22
2023-01-06T09:21:46.171Z,99073.19
2023-01-06T09:24:17.160Z,99087.00
2023-01-06T09:26:45.480Z,99077.69
2023-01-06T09:29:15.193Z,99090.81
2023-01-06T09:31:43.548Z,99092.63
2023-01-06T09:34:11.928Z,99090.41
2023-01-06T09:36:40.238Z,99098.94
2023-01-06T09:39:08.740Z,99091.72
2023-01-06T09:42:08.703Z,99087.81
2023-01-06T09:44:47.532Z,99096.00
2023-01-06T09:47:22.417Z,99092.44
2023-01-06T09:49:57.223Z,99095.34
2023-01-06T09:52:30.185Z,99100.94
2023-01-06T09:55:02.620Z,99098.97
2023-01-06T09:57:35.309Z,99107.34
2023-01-06T10:00:08.883Z,99096.78
2023-01-06T10:02:41.234Z,99084.09
2023-01-06T10:05:20.662Z,99083.97
2023-01-06T10:07:57.643Z,99074.97
2023-01-06T10:10:38.977Z,99071.66
2023-01-06T10:13:24.987Z,99073.09
2023-01-06T10:16:07.447Z,99070.88
2023-01-06T10:18:47.436Z,99060.94
2023-01-06T10:21:23.120Z,99055.59
2023-01-06T10:24:27.746Z,99061.06
2023-01-06T10:26:59.767Z,99055.31
2023-01-06T10:29:33.934Z,99056.44
2023-01-06T10:32:04.779Z,99061.88
2023-01-06T10:34:35.717Z,99056.13
2023-01-06T10:37:19.944Z,99056.56
2023-01-06T10:39:53.496Z,99040.53
2023-01-06T10:42:45.692Z,99061.06
2023-01-06T10:45:16.607Z,99062.34
2023-01-06T10:47:46.880Z,99063.69
2023-01-06T10:50:16.707Z,99058.72
2023-01-06T10:52:45.585Z,99053.44
2023-01-06T10:55:30.336Z,99047.59
2023-01-06T10:58:04.630Z,99052.13
2023-01-06T11:00:33.256Z,99044.81
2023-01-06T11:03:31.310Z,99050.50
2023-01-06T11:06:06.122Z,99045.59
2023-01-06T11:08:35.191Z,99051.91
2023-01-06T11:11:04.594Z,99047.59
2023-01-06T11:13:35.710Z,99040.09
2023-01-06T11:16:06.961Z,99033.66
2023-01-06T11:18:38.214Z,99004.41
2023-01-06T11:21:09.908Z,99031.81
2023-01-06T11:23:41.215Z,99019.03
2023-01-06T11:26:18.814Z,99018.66
2023-01-06T11:28:50.774Z,99018.47
2023-01-06T11:31:22.612Z,99028.34
2023-01-06T11:33:56.517Z,99032.81
2023-01-06T11:36:28.268Z,99034.94
2023-01-06T11:39:00.053Z,99022.69
2023-01-06T11:41:33.566Z,99029.06
2023-01-06T11:44:10.084Z,99021.31
2023-01-06T11:46:38.658Z,99022.69
2023-01-06T11:49:15.310Z,99020.16
2023-01-06T11:51:49.008Z,99018.34
2023-01-06T11:54:25.378Z,99023.06
2023-01-06T11:57:00.932Z,99020.19
2023-01-06T11:59:32.599Z,99008.06
2023-01-06T12:02:01.167Z,99013.22
2023-01-06T12:04:33.537Z,99010.91
2023-01-06T12:07:06.148Z,99012.50
2023-01-06T12:09:37.571Z,99002.09
2023-01-06T12:12:07.587Z,99001.69
2023-01-06T12:14:36.895Z,98996.59
2023-01-06T12:17:08.171Z,98992.75
2023-01-06T12:19:41.988Z,98995.13
2023-01-06T12:22:19.305Z,98997.00
2023-01-06T12:24:49.119Z,98988.13
2023-01-06T12:27:21.562Z,98990.00
2023-01-06T12:29:51.261Z,98987.53
2023-01-06T12:32:22.237Z,98982.84
2023-01-06T12:34:52.244Z,98980.03
2023-01-06T12:37:24.930Z,98983.91
2023-01-06T12:40:00.229Z,98984.50
2023-01-06T12:42:31.889Z,98983.00
2023-01-06T12:45:02.748Z,98969.19
2023-01-06T12:47:34.240Z,98993.47
2023-01-06T12:50:06.661Z,98991.66
2023-01-06T12:52:37.609Z,98994.53
2023-01-06T12:55:06.075Z,98988.84
2023-01-06T12:57:40.547Z,98991.22
2023-01-06T13:00:18.366Z,98989.56
2023-01-06T13:03:04.270Z,98993.63
2023-01-06T13:05:40.767Z,98996.22
2023-01-06T13:08:18.435Z,98995.41
2023-01-06T13:10:47.944Z,98997.72
2023-01-06T13:13:28.877Z,99008.59
2023-01-06T13:15:59.786Z,98999.25
2023-01-06T13:18:33.057Z,99006.50
2023-01-06T13:21:06.039Z,99001.03
2023-01-06T13:23:45.984Z,99003.91
2023-01-06T13:26:34.942Z,98990.34
2023-01-06T13:29:11.274Z,98991.28
2023-01-06T13:32:03.915Z,98974.13
2023-01-06T13:34:55.256Z,98990.00
2023-01-06T13:37:33.118Z,98995.56
2023-01-06T13:40:02.419Z,98996.41
2023-01-06T13:42:35.052Z,98987.81
2023-01-06T13:45:04.133Z,98982.47
2023-01-06T13:47:32.365Z,98984.94
2023-01-06T13:50:00.440Z,98986.97
2023-01-06T13:52:31.566Z,98991.78
2023-01-06T13:55:05.007Z,98990.94
2023-01-06T13:57:35.119Z,98983.75
2023-01-06T14:00:30.139Z,98986.16
2023-01-06T14:03:24.060Z,98985.78
2023-01-06T14:05:59.102Z,98996.13
2023-01-06T14:08:32.910Z,98993.47
2023-01-06T14:11:04.823Z,99004.28
2023-01-06T14:13:37.922Z,99005.72
2023-01-06T14:16:10.973Z,99000.41
2023-01-06T14:18:42.822Z,99011.34
2023-01-06T14:21:25.769Z,99012.34
2023-01-06T14:23:57.081Z,98991.66
2023-01-06T14:26:39.932Z,99025.81
2023-01-06T14:29:26.854Z,99017.13
2023-01-06T14:31:54.837Z,99014.78
2023-01-06T14:34:22.945Z,99018.78
2023-01-06T14:36:52.480Z,99023.09
2023-01-06T14:39:25.063Z,99022.66
2023-01-06T14:41:58.429Z,99022.94
2023-01-06T14:44:30.825Z,99027.00
2023-01-06T14:47:02.186Z,99029.72
2023-01-06T14:49:33.907Z,99029.44
2023-01-06T14:52:04.850Z,99032.50
2023-01-06T14:54:37.478Z,99026.00
2023-01-06T14:57:05.933Z,99036.34
2023-01-06T14:59:34.919Z,99036.34
2023-01-06T15:02:04.535Z,99032.53
2023-01-06T15:04:34.519Z,99029.75
2023-01-06T15:07:05.714Z,99032.47
2023-01-06T15:09:35.241Z,99030.47
2023-01-06T15:12:03.334Z,99028.25
2023-01-06T15:14:32.824Z,99026.41
2023-01-06T15:17:03.076Z,99027.94
2023-01-06T15:19:31.944Z,99026.69
2023-01-06T15:22:01.080Z,99031.41
2023-01-06T15:24:32.162Z,99025.97
2023-01-06T15:27:06.121Z,99028.88
2023-01-06T15:29:34.640Z,99036.59
2023-01-06T15:32:05.595Z,99029.75
2023-01-06T15:34:35.254Z,99039.28
2023-01-06T15:37:05.074Z,99035.94
2023-01-06T15:39:34.962Z,99036.38
2023-01-06T15:42:09.782Z,99041.69
2023-01-06T15:44:39.613Z,99033.53
2023-01-06T15:47:20.372Z,99043.84
2023-01-06T15:49:51.071Z,99038.69
2023-01-06T15:52:24.159Z,99040.75
2023-01-06T15:54:52.640Z,99040.75
2023-01-06T15:57:22.465Z,99042.81
2023-01-06T15:59:55.731Z,99053.09
2023-01-06T16:02:25.705Z,99048.63
2023-01-06T16:04:54.436Z,99048.72
2023-01-06T16:07:23.957Z,99042.25
2023-01-06T16:09:51.995Z,99050.16
2023-01-06T16:12:20.989Z,99048.84
2023-01-06T16:14:50.501Z,99056.31
2023-01-06T16:17:28.505Z,99061.25
2023-01-06T16:20:00.808Z,99058.28
2023-01-06T16:22:34.167Z,99052.25
2023-01-06T16:25:06.691Z,99050.44
2023-01-06T16:27:34.840Z,99050.09
2023-01-06T16:30:19.158Z,99056.66
2023-01-06T16:32:47.804Z,99052.03
2023-01-06T16:35:16.683Z,99030.47
2023-01-06T16:37:45.430Z,99053.72
2023-01-06T16:40:14.553Z,99057.44
2023-01-06T16:42:45.764Z,99062.22
2023-01-06T16:45:26.933Z,99058.28
2023-01-06T16:47:55.694Z,99060.81
2023-01-06T16:50:25.611Z,99063.94
2023-01-06T16:53:01.803Z,99062.50
2023-01-06T16:55:30.278Z,99056.66
2023-01-06T16:57:58.689Z,99055.16
2023-01-06T17:00:28.479Z,99050.09
2023-01-06T17:02:56.542Z,99052.94
2023-01-06T17:05:28.352Z,99058.31
2023-01-06T17:07:58.487Z,99051.47
2023-01-06T17:10:27.080Z,99045.38
2023-01-06T17:13:14.907Z,99055.63
2023-01-06T17:15:47.089Z,99051.47
2023-01-06T17:18:24.937Z,99044.19
2023-01-06T17:20:54.637Z,99048.38
2023-01-06T17:23:22.744Z,99048.81
2023-01-06T17:25:50.769Z,99048.38
2023-01-06T17:28:20.882Z,99042.56
2023-01-06T17:30:52.130Z,99031.78
2023-01-06T17:33:20.777Z,99041.34
2023-01-06T17:35:56.844Z,99045.91
2023-01-06T17:38:25.889Z,99047.34
2023-01-06T17:40:54.874Z,99050.06
2023-01-06T17:43:27.988Z,99055.66
2023-01-06T17:45:57.426Z,99056.09
2023-01-06T17:48:26.515Z,99060.63
2023-01-06T17:50:55.404Z,99057.75
2023-01-06T17:53:42.500Z,99064.56
2023-01-06T17:56:11.541Z,99062.50
2023-01-06T17:58:40.674Z,99043.19
2023-01-06T18:01:10.894Z,99053.38
2023-01-06T18:03:40.657Z,99057.94
2023-01-06T18:06:18.970Z,99052.28
2023-01-06T18:08:48.784Z,99057.91
2023-01-06T18:11:24.784Z,99068.22
2023-01-06T18:13:55.224Z,99067.06
2023-01-06T18:16:32.143Z,99064.28
2023-01-06T18:19:06.452Z,99067.81
2023-01-06T18:21:37.129Z,99064.34
2023-01-06T18:24:14.134Z,99073.69
2023-01-06T18:26:47.862Z,99064.09
2023-01-06T18:29:17.524Z,99067.41
2023-01-06T18:31:47.908Z,99067.25
2023-01-06T18:34:25.394Z,99066.22
2023-01-06T18:36:54.789Z,99062.91
2023-01-06T18:39:27.261Z,99057.25
2023-01-06T18:42:06.127Z,99049.59
2023-01-06T18:44:35.711Z,99052.94
2023-01-06T18:47:12.847Z,99050.25
2023-01-06T18:49:46.500Z,99049.22
2023-01-06T18:52:32.944Z,99053.56
2023-01-06T18:55:15.517Z,99054.84
2023-01-06T18:57:45.918Z,99062.94
2023-01-06T19:00:30.776Z,99060.41
2023-01-06T19:03:02.505Z,99063.53
2023-01-06T19:05:31.412Z,99066.03
2023-01-06T19:08:08.617Z,99066.25
2023-01-06T19:10:39.472Z,99065.00
2023-01-06T19:13:12.150Z,99065.38
2023-01-06T19:15:40.204Z,99060.84
2023-01-06T19:18:13.500Z,99062.09
2023-01-06T19:20:41.983Z,99063.97
2023-01-06T19:23:15.904Z,99036.72
2023-01-06T19:25:50.396Z,99073.28
2023-01-06T19:28:22.411Z,99067.91
2023-01-06T19:30:51.627Z,99063.56
2023-01-06T19:33:37.623Z,99074.13
2023-01-06T19:36:24.675Z,99072.66
2023-01-06T19:38:54.135Z,99072.03
2023-01-06T19:41:24.552Z,99070.56
2023-01-06T19:43:55.087Z,99060.00
2023-01-06T19:46:31.486Z,99064.13
2023-01-06T19:49:04.862Z,99063.13
2023-01-06T19:51:39.578Z,99061.63
2023-01-06T19:54:20.078Z,99063.34
2023-01-06T19:56:49.575Z,99058.78
2023-01-06T19:59:26.219Z,99062.50
2023-01-06T20:01:58.035Z,99060.00
2023-01-06T20:04:27.092Z,99058.97
2023-01-06T20:06:55.520Z,99066.63
2023-01-06T20:09:24.898Z,99069.56
2023-01-06T20:11:53.178Z,99057.09
2023-01-06T20:14:21.602Z,99054.00
2023-01-06T20:16:49.929Z,99057.94
2023-01-06T20:19:17.981Z,99056.69
2023-01-06T20:21:45.967Z,99049.66
2023-01-06T20:24:14.292Z,99050.47
2023-01-06T20:26:43.883Z,99052.31
2023-01-06T20:29:12.132Z,99050.88
2023-01-06T20:31:40.311Z,99052.97
2023-01-06T20:34:08.293Z,99049.63
2023-01-06T20:36:36.384Z,99042.59
2023-01-06T20:39:04.529Z,99044.22
2023-01-06T20:41:32.556Z,99052.31
2023-01-06T20:44:01.932Z,99055.59
2023-01-06T20:46:29.900Z,99060.22
2023-01-06T20:48:57.932Z,99057.69
2023-01-06T20:51:26.036Z,99040.91
2023-01-06T20:53:56.683Z,99053.75
2023-01-06T20:56:24.870Z,99057.06
2023-01-06T20:58:52.852Z,99052.31
2023-01-06T21:01:22.366Z,99058.53
2023-01-06T21:03:50.481Z,99059.75
2023-01-06T21:06:18.452Z,99062.09
2023-01-06T21:08:46.474Z,99053.75
2023-01-06T21:11:14.488Z,99038.84
2023-01-06T21:13:42.532Z,99048.41
2023-01-06T21:16:10.659Z,99033.03
2023-01-06T21:18:41.972Z,99049.00
2023-01-06T21:21:12.143Z,99058.97
2023-01-06T21:23:40.720Z,99047.53
2023-01-06T21:26:08.750Z,99056.66
2023-01-06T21:28:36.874Z,99061.28
2023-01-06T21:31:13.707Z,99045.66
2023-01-06T21:33:43.277Z,99058.38
2023-01-06T21:36:11.329Z,99039.25
2023-01-06T21:38:39.415Z,99042.16
2023-01-06T21:41:21.367Z,99042.78
2023-01-06T21:43:49.351Z,99030.09
2023-01-06T21:46:20.098Z,99041.72
2023-01-06T21:48:58.452Z,99032.81
2023-01-06T21:51:27.180Z,99028.25
2023-01-06T21:53:55.305Z,99031.75
2023-01-06T21:56:23.469Z,99036.13
2023-01-06T21:58:51.524Z,99027.19
2023-01-06T22:02:38.969Z,99022.63
2023-01-06T22:05:07.418Z,99016.22
2023-01-06T22:07:36.867Z,99023.28
2023-01-06T22:10:06.103Z,99016.78
2023-01-06T22:12:34.590Z,99023.88
2023-01-06T22:15:02.848Z,99016.81
2023-01-06T22:17:30.899Z,99017.25
2023-01-06T22:20:00.391Z,99008.53
2023-01-06T22:22:29.016Z,99009.56
2023-01-06T22:25:00.296Z,99008.94
2023-01-06T22:27:28.331Z,99007.91
2023-01-06T22:29:56.480Z,99005.81
2023-01-06T22:32:27.636Z,98991.63
2023-01-06T22:34:55.739Z,99017.84
2023-01-06T22:37:27.432Z,99011.63
2023-01-06T22:39:55.473Z,99014.13
2023-01-06T22:42:23.548Z,99006.88
2023-01-06T22:44:53.860Z,99016.03
2023-01-06T22:47:21.901Z,99015.56
2023-01-06T22:49:54.986Z,99018.06
2023-01-06T22:52:23.013Z,99015.97
2023-01-06T22:54:52.746Z,99013.09
2023-01-06T22:57:21.031Z,99017.25
2023-01-06T22:59:52.018Z,99010.41
2023-01-06T23:02:22.105Z,99004.53
2023-01-06T23:04:50.207Z,99017.88
2023-01-06T23:07:18.232Z,99013.72
2023-01-06T23:09:46.320Z,99019.53
2023-01-06T23:12:15.706Z,99022.66
2023-01-06T23:14:43.733Z,99022.47
2023-01-06T23:17:11.837Z,99028.88
2023-01-06T23:19:40.185Z,99018.69
2023-01-06T23:22:08.240Z,99026.38
2023-01-06T23:24:36.317Z,99023.09
2023-01-06T23:27:04.452Z,99015.59
2023-01-06T23:29:33.835Z,99009.59
2023-01-06T23:32:01.919Z,99006.44
2023-01-06T23:34:30.174Z,98996.03
2023-01-06T23:36:58.236Z,98999.38
2023-01-06T23:39:28.531Z,98996.50
2023-01-06T23:41:56.585Z,98994.78
2023-01-06T23:44:24.659Z,98994.97
2023-01-06T23:46:54.041Z,99002.47
2023-01-06T23:49:22.066Z,98996.91
2023-01-06T23:51:50.152Z,99001.22
2023-01-06T23:54:18.209Z,98988.97
2023-01-06T23:56:46.241Z,98993.94
2023-01-06T23:59:14.684Z,98994.41
